Airfield :
LOGIN :

Register | Disclaimer

   EN    FR    IT 

 










Legend :    VFR   Marginal VFR   IFR   Intensive IFR   Very Intensive IFR
Visi :
Ceiling :
>= 8 km
>= 3000ft
5 to 8 km
1000 to 3000 ft
1500m to 5 km
500 to 1000 ft
800 to 1500m
200 to 500 ft
< 800m
< 200 ft
Symbols :   Thunderstorms  Fog  Heavy snow  Heavy precipitations  Wind > 20 kt
SIGMETs :     Misc.  Thunderstorms  Icing  Turbulence  Mountain Waves  Volcanic Ashes







- Airport Elevation : 9 ft
- IATA code : MIR


DTMB - Habib Bourguliba Int. Monastir

CURRENT METAR :
  • 211130Z 35013KT CAVOK 30/16 Q1015 NOSIG

EXPIRED METARs :
  • 211100Z 34014KT CAVOK 29/17 Q1015 NOSIG
  • 211030Z 34014KT CAVOK 30/18 Q1016 NOSIG
  • 211000Z 34014KT CAVOK 29/17 Q1016 NOSIG
  • 210930Z 33014KT 290V350 CAVOK 29/17 Q1016 NOSIG
  • 210900Z 32012KT CAVOK 28/17 Q1016 NOSIG

TAF TAF DTMB
Valid from the 21 at 12:00 until the 22 at 12:00 UTC


211100Z 2112/2212 34014KT CAVOK
PROB40
TEMPO 2115/2120 03015G25KT
BECMG 2208/2210 36010KT
No reported NOTAMs for that airfield.



MET'MAP, your aeronautical weather chart ! - Copyright ORBIFLY December 2007 - Disclaimer

ORBIFLY MET'MAP TEAM :

Programming & Development : Alexandra Zaïnal
Concept & Development : Baudouin d'Aumeries
Co-Development & Prog : Marc-Olivier Méhu
Technical & hardware support : Manuel Goepfert

Contact : metmap@orbifly.com




SOURCES & CREDITS :

   NOAA